SLRY  Reyes Airport

Add Bookmark

Reyes, Bolivia

Status IATA
Operational REY
Latitude Longitude
14° 18' 15" S 67° 21' 12" W
-14.304400 -67.353401
Local (DST -4) UTC (GMT -4)
Sep 1, 2014 07:14 Sep 1, 2014 11:14
Sunrise-Sunset Local UTC
Begin Civil Twilight 06:11 10:11
Sunrise 06:32 10:32
Sunset 06:25 22:25
End Civil Twilight 06:47 22:47

Current Weather

METAR Observed VFR
SLRY 011000Z 00000KT 9999 NSC 19/18 Q1011 Mon, Sep 1, 2014 @ 10:00 UTC
(1 Hour, 14 Minutes ago)
Visual Flight Rules
Wind Visibility Clouds Conditions
Calm 10 km or more
  • Clear skies
  • No significant weather
Temperatures Readings Precipitation
Current Temp 19°C (66°F)
Dewpoint 18°C (64°F)
Humidity 94%
Altimeter 29.85"Hg
Sea Level Pressure 1011mb
Field Elevation 918.64'
None Recorded

Additional weather within a 92.6km radius of SLRY

Map ICAO Location
SLRQ 20.7km S (229°)

24 Hour Weather History

Loading
-

24 Hour Weather Graphs

Loading
-

CheckWX.com is intended as a tool to help pilots better visualize weather data. It is not intended as a substitute for an official weather briefing obtained from a Flight Service Station. CheckWX.com does not meet the FAA requirements for an official pre-flight weather briefing. Therefore, it's important that pilots still call and obtain an official FSS pre-flight weather briefing.